Timber, Missouri
Current Conditions -  °F | °C
As of 2:58 AM on Thursday 23 Oct 2014 (Local Time) from KTBN Reporting Station
Clear Clear  
Wind Chill: 39°   Ceiling: Unl
Heat Index: 42°   Visibility: 10mi
Dew Point: 42°   Wind: 6mph
Humidity: 97%   Direction: 150°SSE
Pressure: 30.18"   Gusts: NA
Location:  37.5023°N, 91.4546°W
Report Text: KTBN 230758Z AUTO 15005KT 10SM CLR 06/05 A3018 RMK AO2 SLP222 T00580054
Loading
Personal Weather Stations






























Interactive Weather Map
Tropical Storm Tracking
New forecast layout! Learn more

10-Day Weather Forecast

Advertisements
Track Severe Weather on mobile